Time;durP1;ratioP1;P1;durP2;ratioP2;P2;SDS_P1;SDS_P2;PMS_P1;PMS_P2;Temp;Humidity;BMP_temperature;BMP_pressure;BME280_temperature;BME280_humidity;BME280_pressure;Samples;Min_cycle;Max_cycle;Signal;HPM_P1;HPM_P2
2021/01/29 00:00:33;;;;;;;15.38;4.60;;;11.40;99.90;;;;;;4982080;28;20177;-92
2021/01/29 00:03:01;;;;;;;19.17;4.93;;;11.40;99.90;;;;;;4998717;28;20615;-94
2021/01/29 00:05:40;;;;;;;16.67;4.05;;;11.40;99.90;;;;;;5000179;28;20522;-93
2021/01/29 00:08:06;;;;;;;22.25;5.13;;;11.40;99.90;;;;;;5014737;28;20183;-93
2021/01/29 00:10:34;;;;;;;22.38;4.57;;;11.40;99.90;;;;;;5020619;28;20252;-92
2021/01/29 00:13:01;;;;;;;26.05;5.43;;;11.40;99.90;;;;;;5007622;28;20235;-93
2021/01/29 00:15:27;;;;;;;14.68;3.72;;;11.30;99.90;;;;;;4983888;28;20172;-93
2021/01/29 00:17:53;;;;;;;15.93;4.47;;;11.40;99.90;;;;;;4995536;28;20184;-94
2021/01/29 00:20:23;;;;;;;17.33;4.18;;;11.30;99.90;;;;;;4997867;28;20188;-93
2021/01/29 00:22:49;;;;;;;10.98;4.45;;;11.40;99.90;;;;;;5000271;28;20181;-92
2021/01/29 00:25:24;;;;;;;18.00;4.72;;;11.30;99.90;;;;;;5001313;28;20211;-94
2021/01/29 00:27:51;;;;;;;15.32;4.38;;;11.30;99.90;;;;;;5000033;28;20176;-95
2021/01/29 00:30:19;;;;;;;13.65;4.03;;;11.30;99.90;;;;;;4999338;28;20323;-94
2021/01/29 00:32:50;;;;;;;14.05;3.90;;;11.30;99.90;;;;;;5016523;28;20570;-94
2021/01/29 00:35:32;;;;;;;16.45;4.18;;;11.40;99.90;;;;;;5001557;28;20176;-94
2021/01/29 00:37:59;;;;;;;13.95;4.22;;;11.40;99.90;;;;;;5001377;28;20597;-93
2021/01/29 00:40:26;;;;;;;10.77;3.70;;;11.40;99.90;;;;;;4981069;28;20197;-96
2021/01/29 00:42:52;;;;;;;8.73;3.13;;;11.40;99.90;;;;;;4980131;28;20185;-92
2021/01/29 00:45:21;;;;;;;7.13;3.03;;;11.40;99.90;;;;;;4979579;28;20183;-93
2021/01/29 00:47:47;;;;;;;9.60;3.17;;;11.40;99.90;;;;;;4978133;28;20176;-93
2021/01/29 00:50:13;;;;;;;14.88;3.63;;;11.30;99.90;;;;;;4978922;28;20264;-93
2021/01/29 00:52:42;;;;;;;8.20;2.63;;;11.30;99.90;;;;;;4980897;28;20212;-94
2021/01/29 00:55:12;;;;;;;6.22;2.42;;;11.30;99.90;;;;;;4981878;28;20161;-94
2021/01/29 00:57:40;;;;;;;6.63;2.47;;;11.40;99.90;;;;;;4981707;28;20227;-93
2021/01/29 01:00:09;;;;;;;5.68;2.78;;;11.30;99.90;;;;;;4981068;28;20237;-93
2021/01/29 01:02:37;;;;;;;8.50;2.45;;;11.40;99.90;;;;;;4981716;28;20180;-92
2021/01/29 01:05:04;;;;;;;5.10;2.42;;;11.40;99.90;;;;;;4981646;28;20169;-92
2021/01/29 01:07:30;;;;;;;8.75;2.05;;;11.40;99.90;;;;;;4981668;28;20177;-94
2021/01/29 01:09:56;;;;;;;4.95;2.30;;;11.50;99.90;;;;;;4997850;28;20668;-93
2021/01/29 01:12:25;;;;;;;3.88;1.58;;;11.50;99.90;;;;;;5000537;28;20473;-94
2021/01/29 01:14:51;;;;;;;4.50;1.60;;;11.50;99.90;;;;;;5000753;28;20187;-93
2021/01/29 01:17:17;;;;;;;4.80;1.73;;;11.50;99.90;;;;;;5000539;28;20173;-93
2021/01/29 01:19:44;;;;;;;4.03;1.60;;;11.50;99.90;;;;;;5001508;28;20183;-93
2021/01/29 01:22:10;;;;;;;3.20;1.80;;;11.50;99.90;;;;;;5001617;28;20176;-92
2021/01/29 01:24:39;;;;;;;2.78;1.88;;;11.60;99.90;;;;;;5000564;28;20175;-94
2021/01/29 01:27:17;;;;;;;2.70;2.10;;;11.60;99.90;;;;;;5002703;28;20614;-92
2021/01/29 01:29:43;;;;;;;5.38;1.90;;;11.60;99.90;;;;;;5000088;28;20173;-93
2021/01/29 01:32:10;;;;;;;3.85;2.42;;;11.60;99.90;;;;;;4999897;28;20199;-92
2021/01/29 01:34:35;;;;;;;1.88;1.77;;;11.70;99.90;;;;;;5000264;28;20177;-93
2021/01/29 01:37:05;;;;;;;4.70;1.98;;;11.60;99.90;;;;;;4999741;28;20169;-92
2021/01/29 01:39:31;;;;;;;4.43;2.00;;;11.60;99.90;;;;;;4999542;28;20180;-93
2021/01/29 01:41:59;;;;;;;2.35;1.95;;;11.60;99.90;;;;;;4999470;28;20534;-92
2021/01/29 01:44:35;;;;;;;7.65;2.05;;;11.60;99.90;;;;;;4999598;28;20526;-93
2021/01/29 01:47:22;;;;;;;2.60;1.77;;;11.70;99.90;;;;;;4999300;28;20496;-93
2021/01/29 01:49:53;;;;;;;3.22;1.70;;;11.60;99.90;;;;;;4999770;28;20169;-93
2021/01/29 01:52:31;;;;;;;3.03;1.63;;;11.60;99.90;;;;;;5003887;28;20219;-92
2021/01/29 01:55:04;;;;;;;1.30;1.20;;;11.70;99.90;;;;;;4980582;28;20239;-93
2021/01/29 01:57:33;;;;;;;1.38;0.90;;;11.80;99.90;;;;;;4982161;28;20196;-93
2021/01/29 02:00:13;;;;;;;2.10;1.27;;;11.80;99.90;;;;;;4983801;28;20195;-93
2021/01/29 02:02:43;;;;;;;7.43;1.83;;;11.80;99.90;;;;;;4984782;28;20204;-92
2021/01/29 02:05:34;;;;;;;6.03;1.77;;;11.80;99.90;;;;;;5001076;28;20177;-94
2021/01/29 02:08:05;;;;;;;2.72;1.45;;;11.80;99.90;;;;;;4998003;28;20438;-92
2021/01/29 02:10:34;;;;;;;2.05;1.50;;;11.70;99.90;;;;;;4980727;28;20219;-92
2021/01/29 02:13:01;;;;;;;1.83;1.45;;;11.70;99.90;;;;;;4981335;28;20204;-93
2021/01/29 02:15:38;;;;;;;2.13;1.30;;;11.70;99.90;;;;;;4982985;28;20169;-93
2021/01/29 02:18:44;;;;;;;2.35;1.60;;;11.70;99.90;;;;;;5003632;28;20172;-93
2021/01/29 02:21:54;;;;;;;1.42;1.30;;;11.60;99.90;;;;;;5023108;28;20164;-93
2021/01/29 02:24:52;;;;;;;2.03;1.00;;;11.60;99.90;;;;;;4992092;28;20204;-93
2021/01/29 02:27:51;;;;;;;1.20;1.10;;;11.70;99.90;;;;;;5017397;28;20157;-93
2021/01/29 02:30:50;;;;;;;1.92;1.00;;;11.70;99.90;;;;;;5022603;28;20167;-94
2021/01/29 02:33:37;;;;;;;1.10;1.00;;;11.70;99.90;;;;;;5107902;23;20240;-93
2021/01/29 02:36:22;;;;;;;1.27;1.05;;;11.70;99.90;;;;;;5047592;23;20228;-93
2021/01/29 02:38:59;;;;;;;1.17;0.90;;;11.70;99.90;;;;;;5003671;28;20205;-94
2021/01/29 02:44:34;;;;;;;1.00;0.90;;;11.70;99.90;;;;;;5045456;23;20220;-94
2021/01/29 02:47:25;;;;;;;0.88;0.57;;;11.70;99.90;;;;;;5000127;28;20235;-93
2021/01/29 02:49:56;;;;;;;0.95;0.60;;;11.70;99.90;;;;;;4982239;28;20264;-93
2021/01/29 02:52:31;;;;;;;2.72;0.80;;;11.70;99.90;;;;;;4981076;28;20205;-91
2021/01/29 02:55:12;;;;;;;1.17;0.40;;;11.70;99.90;;;;;;4981063;28;20177;-92
2021/01/29 02:58:08;;;;;;;2.20;0.50;;;11.70;99.90;;;;;;5013776;28;20176;-92
2021/01/29 03:00:45;;;;;;;1.25;0.60;;;11.60;99.90;;;;;;4986073;28;20216;-90
2021/01/29 03:03:36;;;;;;;2.38;0.50;;;11.50;99.90;;;;;;4980378;28;20177;-91
2021/01/29 03:06:18;;;;;;;0.93;0.40;;;11.40;99.90;;;;;;4979748;28;20504;-91
2021/01/29 03:09:25;;;;;;;0.70;0.38;;;11.40;99.90;;;;;;4998322;28;20180;-92
2021/01/29 03:12:09;;;;;;;1.08;0.55;;;11.40;99.90;;;;;;4998228;28;20208;-91
2021/01/29 03:14:43;;;;;;;1.65;0.40;;;11.40;99.90;;;;;;4998675;28;20172;-93
2021/01/29 03:17:29;;;;;;;0.35;0.30;;;11.40;99.90;;;;;;4998450;28;20160;-92
2021/01/29 03:19:59;;;;;;;0.82;0.30;;;11.30;99.90;;;;;;4998458;28;20526;-90
2021/01/29 03:22:38;;;;;;;1.45;0.43;;;11.30;99.90;;;;;;4998405;28;20242;-90
2021/01/29 03:25:13;;;;;;;0.45;0.40;;;11.30;99.90;;;;;;4998876;28;20628;-91
2021/01/29 03:27:48;;;;;;;2.72;0.50;;;11.30;99.90;;;;;;4998291;28;20160;-89
2021/01/29 03:30:19;;;;;;;1.58;1.48;;;11.40;99.90;;;;;;4998090;28;20183;-91
2021/01/29 03:32:57;;;;;;;2.05;0.32;;;11.40;99.90;;;;;;4998152;28;20188;-90
2021/01/29 03:35:42;;;;;;;1.30;0.30;;;11.50;99.90;;;;;;4998318;28;20175;-91
2021/01/29 03:38:17;;;;;;;3.47;0.47;;;11.50;99.90;;;;;;4998324;28;20622;-92
2021/01/29 03:40:47;;;;;;;0.60;0.35;;;11.30;99.90;;;;;;4997791;28;20624;-91
2021/01/29 03:43:30;;;;;;;2.85;0.40;;;11.20;99.90;;;;;;4997578;28;20203;-91
2021/01/29 03:46:18;;;;;;;3.10;0.60;;;11.20;99.90;;;;;;4998145;28;20192;-91
2021/01/29 03:49:08;;;;;;;1.05;0.60;;;11.20;99.90;;;;;;4998343;28;20220;-92
2021/01/29 03:51:49;;;;;;;0.88;0.50;;;11.20;99.90;;;;;;4978126;28;20193;-91
2021/01/29 03:54:40;;;;;;;1.48;0.60;;;11.30;99.90;;;;;;4978663;28;20208;-90
2021/01/29 03:57:24;;;;;;;1.70;0.70;;;11.30;99.90;;;;;;4978421;28;20200;-91
2021/01/29 04:00:00;;;;;;;2.92;0.60;;;11.30;99.90;;;;;;4978358;28;20241;-92
2021/01/29 04:02:58;;;;;;;3.58;0.90;;;11.30;99.90;;;;;;4979155;28;20185;-93
2021/01/29 04:05:33;;;;;;;2.05;0.90;;;11.20;99.90;;;;;;4991211;28;20501;-91
2021/01/29 04:08:16;;;;;;;4.38;1.70;;;11.30;99.90;;;;;;4997123;28;20180;-91
2021/01/29 04:10:50;;;;;;;1.95;0.77;;;11.20;99.90;;;;;;4998061;28;20203;-91
2021/01/29 04:13:37;;;;;;;3.55;0.90;;;11.30;99.90;;;;;;4997696;28;20180;-90
2021/01/29 04:16:07;;;;;;;4.30;1.13;;;11.30;99.90;;;;;;4997816;28;20161;-91
2021/01/29 04:18:53;;;;;;;2.92;1.38;;;11.30;99.90;;;;;;4997646;28;20168;-91
2021/01/29 04:21:47;;;;;;;6.32;1.20;;;11.10;99.90;;;;;;4997783;28;20183;-92
2021/01/29 04:24:36;;;;;;;5.55;2.35;;;11.10;99.90;;;;;;4997652;28;20165;-92
2021/01/29 04:27:16;;;;;;;8.52;1.63;;;11.00;99.90;;;;;;4997523;28;20172;-89
2021/01/29 04:29:42;;;;;;;10.07;1.80;;;11.00;99.90;;;;;;5001661;28;20247;-90
2021/01/29 04:32:15;;;;;;;10.70;1.45;;;10.90;99.90;;;;;;5001065;28;20350;-90
2021/01/29 04:34:48;;;;;;;7.35;1.70;;;10.90;99.90;;;;;;5001262;28;20172;-93
2021/01/29 04:37:24;;;;;;;5.00;1.55;;;10.90;99.90;;;;;;5001415;28;20227;-91
2021/01/29 04:39:58;;;;;;;6.30;1.60;;;10.90;99.90;;;;;;5001130;28;20194;-90
2021/01/29 04:42:53;;;;;;;6.60;1.33;;;10.90;99.90;;;;;;5001152;28;20637;-91
2021/01/29 04:45:45;;;;;;;7.47;1.45;;;10.90;99.90;;;;;;5003018;28;20177;-91
2021/01/29 04:48:36;;;;;;;11.68;1.52;;;10.80;99.90;;;;;;4997594;28;20180;-90
2021/01/29 04:51:08;;;;;;;8.98;1.85;;;10.70;99.90;;;;;;5004721;28;20225;-90
2021/01/29 04:54:27;;;;;;;8.13;1.20;;;10.70;99.90;;;;;;4997620;28;20174;-91
2021/01/29 04:57:20;;;;;;;11.00;2.13;;;10.70;99.90;;;;;;4922793;29;20184;-91
2021/01/29 05:00:30;;;;;;;11.85;1.80;;;10.60;99.90;;;;;;4939486;29;20262;-89
2021/01/29 05:03:15;;;;;;;9.68;1.10;;;10.50;99.90;;;;;;4982218;28;20165;-91
2021/01/29 05:06:12;;;;;;;13.95;2.00;;;10.60;99.90;;;;;;5004965;28;20161;-92
2021/01/29 05:09:04;;;;;;;14.77;2.67;;;10.60;99.90;;;;;;5004367;28;20154;-94
2021/01/29 05:12:07;;;;;;;22.63;2.83;;;10.60;99.90;;;;;;4985360;28;20689;-91
2021/01/29 05:14:54;;;;;;;17.42;2.78;;;10.60;99.90;;;;;;4982082;28;20174;-92
2021/01/29 05:17:44;;;;;;;15.27;2.58;;;10.70;99.90;;;;;;4981427;28;20201;-90
2021/01/29 05:20:44;;;;;;;19.52;3.30;;;10.70;99.90;;;;;;4981122;28;20166;-91
2021/01/29 05:23:28;;;;;;;23.85;3.08;;;10.70;99.90;;;;;;4981684;28;20221;-90
2021/01/29 05:26:03;;;;;;;32.00;3.38;;;10.70;99.90;;;;;;5000184;28;20169;-89
2021/01/29 05:28:49;;;;;;;25.98;3.78;;;10.70;99.90;;;;;;5000475;28;20160;-90
2021/01/29 05:31:33;;;;;;;15.73;2.80;;;10.70;99.90;;;;;;5000079;28;20192;-91
2021/01/29 05:34:11;;;;;;;22.60;2.80;;;10.70;99.90;;;;;;5000696;28;20165;-91
2021/01/29 05:36:54;;;;;;;23.70;3.30;;;10.80;99.90;;;;;;4999986;28;20156;-92
2021/01/29 05:39:24;;;;;;;24.08;3.80;;;10.80;99.90;;;;;;5000588;28;20514;-90
2021/01/29 05:42:05;;;;;;;29.80;3.67;;;10.80;99.90;;;;;;5000151;28;20265;-90
2021/01/29 05:45:08;;;;;;;21.88;3.10;;;10.90;99.90;;;;;;4999789;28;20192;-90
2021/01/29 05:48:09;;;;;;;26.63;4.40;;;10.90;99.90;;;;;;5016174;28;20180;-89
2021/01/29 05:51:04;;;;;;;25.10;3.75;;;10.90;99.90;;;;;;5012803;28;20173;-89
2021/01/29 05:53:43;;;;;;;35.10;4.70;;;10.90;99.90;;;;;;4980241;28;20241;-90
2021/01/29 05:56:21;;;;;;;24.38;3.75;;;10.90;99.90;;;;;;4989097;28;20231;-89
2021/01/29 05:59:20;;;;;;;26.80;3.85;;;10.90;99.90;;;;;;5000786;28;20161;-92
2021/01/29 06:01:59;;;;;;;29.92;4.80;;;10.90;99.90;;;;;;5000997;28;20628;-89
2021/01/29 06:04:42;;;;;;;33.55;4.30;;;10.80;99.90;;;;;;5001732;28;20211;-92
2021/01/29 06:07:36;;;;;;;23.52;4.05;;;10.80;99.90;;;;;;5001726;28;20168;-88
2021/01/29 06:10:24;;;;;;;20.42;4.30;;;10.70;99.90;;;;;;5012363;28;20185;-90
2021/01/29 06:13:27;;;;;;;26.20;5.03;;;10.80;99.90;;;;;;5002358;28;20197;-91
2021/01/29 06:16:05;;;;;;;27.50;4.43;;;10.80;99.90;;;;;;5020505;28;20200;-89
2021/01/29 06:18:46;;;;;;;35.05;4.40;;;10.70;99.90;;;;;;5001197;28;20200;-89
2021/01/29 06:21:53;;;;;;;35.40;5.25;;;10.70;99.90;;;;;;5001596;28;20176;-91
2021/01/29 06:24:53;;;;;;;33.30;4.40;;;10.70;99.90;;;;;;4969640;28;20185;-91
2021/01/29 06:27:22;;;;;;;21.02;4.22;;;10.60;99.90;;;;;;5018363;28;20161;-89
2021/01/29 06:30:25;;;;;;;31.65;4.88;;;10.60;99.90;;;;;;5000480;28;20172;-91
2021/01/29 06:33:12;;;;;;;33.88;4.47;;;10.50;99.90;;;;;;5001680;28;20184;-92
2021/01/29 06:36:11;;;;;;;36.75;4.35;;;10.50;99.90;;;;;;5001744;28;20338;-92
2021/01/29 06:38:55;;;;;;;47.05;5.15;;;10.40;99.90;;;;;;5002954;28;20172;-90
2021/01/29 06:42:11;;;;;;;30.25;4.15;;;10.30;99.90;;;;;;5017237;28;20173;-91
2021/01/29 06:44:59;;;;;;;31.73;5.15;;;10.30;99.90;;;;;;4990931;28;20283;-91
2021/01/29 06:47:52;;;;;;;31.05;5.18;;;10.20;99.90;;;;;;4999019;28;20173;-92
2021/01/29 06:53:57;;;;;;;32.85;5.05;;;10.10;99.90;;;;;;5002893;28;20235;-91
2021/01/29 06:57:00;;;;;;;28.80;4.45;;;10.00;99.90;;;;;;4998869;28;20176;-92
2021/01/29 06:59:26;;;;;;;31.35;5.07;;;10.00;99.90;;;;;;5015504;28;20176;-93
2021/01/29 07:02:16;;;;;;;42.83;5.32;;;9.90;99.90;;;;;;4999425;28;20181;-92
2021/01/29 07:05:10;;;;;;;32.85;5.20;;;9.90;99.90;;;;;;4998979;28;20169;-92
2021/01/29 07:07:44;;;;;;;48.65;7.13;;;9.90;99.90;;;;;;5014842;28;20180;-91
2021/01/29 07:10:21;;;;;;;31.95;4.80;;;9.80;99.90;;;;;;4998290;28;20183;-91
2021/01/29 07:13:22;;;;;;;34.65;6.28;;;9.90;99.90;;;;;;4998265;28;20204;-91
2021/01/29 07:16:04;;;;;;;47.30;6.07;;;9.90;99.90;;;;;;5008366;28;20200;-91
2021/01/29 07:18:48;;;;;;;39.90;6.20;;;9.90;99.90;;;;;;5019185;28;20177;-94
2021/01/29 07:21:33;;;;;;;46.33;6.70;;;9.90;99.90;;;;;;5012143;28;20184;-92
2021/01/29 07:24:12;;;;;;;55.28;7.32;;;9.90;99.90;;;;;;5002251;28;20203;-91
2021/01/29 07:27:16;;;;;;;40.85;6.22;;;9.90;99.90;;;;;;4998688;28;20215;-90
2021/01/29 07:30:07;;;;;;;47.92;5.78;;;10.00;99.90;;;;;;4995107;28;20180;-91
2021/01/29 07:32:48;;;;;;;53.83;7.20;;;10.00;99.90;;;;;;5016570;28;20236;-91
2021/01/29 07:35:25;;;;;;;45.88;6.63;;;10.00;99.90;;;;;;5021196;28;20173;-90
2021/01/29 07:38:11;;;;;;;44.67;6.15;;;10.00;99.90;;;;;;5021655;28;20162;-92
2021/01/29 07:41:08;;;;;;;45.85;7.85;;;9.90;99.90;;;;;;5028307;28;20184;-91
2021/01/29 07:43:46;;;;;;;51.60;6.68;;;9.90;99.90;;;;;;4998933;28;20526;-91
2021/01/29 07:46:20;;;;;;;46.92;5.85;;;9.90;99.90;;;;;;4999157;28;20188;-90
2021/01/29 07:48:45;;;;;;;55.50;6.90;;;9.80;99.90;;;;;;4998838;28;20647;-92
2021/01/29 07:51:38;;;;;;;42.83;6.43;;;9.90;99.90;;;;;;4998059;28;20242;-92
2021/01/29 07:54:40;;;;;;;45.40;7.72;;;10.00;99.90;;;;;;4998578;28;20546;-92
2021/01/29 07:57:24;;;;;;;40.75;5.35;;;10.00;99.90;;;;;;4998733;28;20164;-91
2021/01/29 08:00:02;;;;;;;61.95;6.88;;;10.00;99.90;;;;;;4998946;28;20626;-92
2021/01/29 08:02:40;;;;;;;38.95;6.28;;;10.00;99.90;;;;;;5000402;28;20176;-93
2021/01/29 08:05:50;;;;;;;50.22;7.35;;;10.10;99.90;;;;;;5003582;28;20315;-93
2021/01/29 08:08:29;;;;;;;38.22;6.65;;;10.20;99.90;;;;;;4941156;29;20215;-92
2021/01/29 08:10:58;;;;;;;50.58;6.35;;;10.30;99.90;;;;;;5000549;28;20673;-94
2021/01/29 08:13:41;;;;;;;62.30;8.25;;;10.40;99.90;;;;;;5005416;28;20419;-93
2021/01/29 08:16:44;;;;;;;40.03;5.63;;;10.50;99.90;;;;;;5006310;28;20176;-91
2021/01/29 08:19:19;;;;;;;55.10;6.45;;;10.60;99.90;;;;;;5005194;28;20595;-93
2021/01/29 08:21:56;;;;;;;52.88;6.90;;;10.60;99.90;;;;;;5005470;28;20189;-95
2021/01/29 08:24:41;;;;;;;48.33;7.13;;;10.70;99.90;;;;;;5006690;28;20176;-94
2021/01/29 08:27:18;;;;;;;56.30;7.88;;;10.70;99.90;;;;;;5002304;28;20190;-96
2021/01/29 08:30:08;;;;;;;42.05;6.25;;;10.80;99.90;;;;;;4986576;28;20182;-94
2021/01/29 08:33:17;;;;;;;40.45;6.15;;;10.80;99.90;;;;;;4988144;28;20201;-94
2021/01/29 08:36:03;;;;;;;43.20;7.13;;;10.80;99.90;;;;;;4989054;28;20214;-92
2021/01/29 08:38:56;;;;;;;51.75;8.00;;;10.80;99.90;;;;;;4996613;28;20177;-93
2021/01/29 08:41:30;;;;;;;43.42;7.43;;;10.90;99.90;;;;;;5007690;28;20173;-94
2021/01/29 08:44:15;;;;;;;53.25;7.53;;;11.00;99.90;;;;;;5005652;28;20632;-93
2021/01/29 08:47:14;;;;;;;34.70;6.25;;;11.00;99.90;;;;;;5015017;28;20169;-92
2021/01/29 08:50:17;;;;;;;52.97;8.20;;;11.00;99.90;;;;;;5007257;28;20160;-94
2021/01/29 08:52:45;;;;;;;52.10;7.45;;;11.00;99.90;;;;;;5003070;28;20212;-93
2021/01/29 08:55:32;;;;;;;44.97;7.18;;;11.00;99.90;;;;;;5006390;28;20176;-93
2021/01/29 08:58:18;;;;;;;42.03;6.05;;;11.00;99.90;;;;;;5005088;28;20260;-94
2021/01/29 09:00:47;;;;;;;46.40;5.85;;;11.00;99.90;;;;;;4993417;28;20212;-93
2021/01/29 09:03:32;;;;;;;48.38;5.63;;;11.00;99.90;;;;;;5004655;28;20176;-94
2021/01/29 09:06:23;;;;;;;35.35;4.93;;;11.10;99.90;;;;;;5003891;28;20183;-94
2021/01/29 09:09:04;;;;;;;26.55;4.70;;;11.00;99.90;;;;;;5004213;28;20268;-92
2021/01/29 09:11:49;;;;;;;30.33;4.68;;;11.10;99.90;;;;;;5002844;28;20188;-92
2021/01/29 09:14:37;;;;;;;46.10;6.93;;;11.20;99.90;;;;;;5002783;28;20536;-93
2021/01/29 09:17:13;;;;;;;29.50;5.43;;;11.70;99.90;;;;;;5002670;28;20183;-94
2021/01/29 09:19:43;;;;;;;23.58;4.13;;;12.60;99.90;;;;;;5004393;28;20168;-93
2021/01/29 09:22:29;;;;;;;29.05;4.60;;;13.10;99.90;;;;;;5005224;28;20264;-92
2021/01/29 09:25:12;;;;;;;31.55;5.60;;;12.90;99.90;;;;;;5005783;28;20168;-94
2021/01/29 09:27:54;;;;;;;30.25;5.55;;;12.80;99.90;;;;;;5004465;28;20527;-92
2021/01/29 09:30:29;;;;;;;40.83;6.18;;;13.60;99.90;;;;;;5002529;28;20226;-94
2021/01/29 09:33:23;;;;;;;33.75;4.78;;;13.10;99.90;;;;;;4987537;28;20212;-93
2021/01/29 09:35:59;;;;;;;41.80;5.90;;;12.90;99.90;;;;;;4987150;28;20614;-91
2021/01/29 09:38:33;;;;;;;34.95;5.43;;;12.40;99.90;;;;;;4995415;28;20173;-91
2021/01/29 09:41:15;;;;;;;33.50;4.78;;;12.30;99.90;;;;;;5005599;28;20165;-94
2021/01/29 09:43:55;;;;;;;43.17;5.25;;;12.20;99.90;;;;;;5026209;28;20165;-94
2021/01/29 09:46:36;;;;;;;41.63;5.78;;;12.20;99.90;;;;;;5023666;28;20179;-92
2021/01/29 09:49:07;;;;;;;35.17;5.47;;;12.30;99.90;;;;;;5018796;28;20188;-85
2021/01/29 09:51:45;;;;;;;42.92;5.85;;;12.50;99.90;;;;;;5026427;28;20224;-90
2021/01/29 09:54:24;;;;;;;35.95;5.32;;;12.60;99.90;;;;;;4999857;28;20199;-92
2021/01/29 09:57:09;;;;;;;32.97;5.18;;;12.70;99.90;;;;;;5007359;28;20168;-91
2021/01/29 09:59:52;;;;;;;54.45;6.57;;;12.30;99.90;;;;;;5003397;28;20172;-91
2021/01/29 10:02:25;;;;;;;33.05;5.60;;;12.10;99.90;;;;;;5013684;28;20173;-93
2021/01/29 10:05:04;;;;;;;38.88;5.90;;;12.00;99.90;;;;;;5022863;28;20161;-92
2021/01/29 10:07:33;;;;;;;30.23;5.05;;;12.00;99.90;;;;;;5016865;28;20256;-92
2021/01/29 10:10:11;;;;;;;45.60;6.95;;;12.00;99.90;;;;;;5001738;28;20233;-92
2021/01/29 10:12:53;;;;;;;52.67;7.10;;;12.00;99.90;;;;;;5001851;28;20231;-92
2021/01/29 10:15:23;;;;;;;48.35;6.30;;;12.00;99.90;;;;;;5000271;28;20180;-77
2021/01/29 10:18:15;;;;;;;43.08;6.53;;;12.20;99.90;;;;;;5015737;28;20625;-77
2021/01/29 10:20:42;;;;;;;43.13;6.70;;;12.30;99.90;;;;;;5015291;28;20173;-77
2021/01/29 10:23:29;;;;;;;42.47;7.43;;;12.60;99.90;;;;;;4997390;28;20188;-77
2021/01/29 10:26:04;;;;;;;46.65;6.97;;;12.90;99.90;;;;;;4997018;28;20255;-77
2021/01/29 10:29:02;;;;;;;42.78;6.97;;;13.80;99.90;;;;;;4998525;28;20177;-76
2021/01/29 10:31:38;;;;;;;43.35;6.50;;;13.70;99.90;;;;;;5000943;28;20207;-90
2021/01/29 10:34:20;;;;;;;42.35;7.72;;;13.60;99.90;;;;;;5019560;28;20171;-90
2021/01/29 10:36:48;;;;;;;39.30;7.88;;;15.90;99.90;;;;;;5014361;28;20253;-90
2021/01/29 10:39:21;;;;;;;38.15;6.65;;;15.30;99.90;;;;;;5030560;28;20185;-91
2021/01/29 10:41:56;;;;;;;41.58;6.97;;;14.20;99.90;;;;;;5039075;28;20184;-92
2021/01/29 10:44:29;;;;;;;37.92;6.25;;;14.00;99.90;;;;;;5037000;28;20191;-92
2021/01/29 10:47:26;;;;;;;42.25;7.75;;;13.50;99.90;;;;;;5024211;28;20640;-93
2021/01/29 10:53:21;;;;;;;40.40;6.82;;;13.10;99.90;;;;;;5019377;28;20711;-91
2021/01/29 10:59:21;;;;;;;51.67;6.10;;;12.70;99.90;;;;;;5017209;28;20159;-91
2021/01/29 11:01:58;;;;;;;41.75;6.40;;;12.80;99.90;;;;;;5016135;28;20212;-92
2021/01/29 11:04:27;;;;;;;34.55;5.88;;;13.00;99.90;;;;;;5015814;28;20168;-92
2021/01/29 11:07:07;;;;;;;42.60;6.50;;;13.20;99.90;;;;;;5023635;28;20164;-91
2021/01/29 11:17:28;;;;;;;40.45;6.00;;;12.90;99.90;;;;;;4996589;28;20192;-92
2021/01/29 11:20:09;;;;;;;37.05;6.43;;;12.40;99.90;;;;;;4982592;28;20697;-91
2021/01/29 11:25:14;;;;;;;37.15;6.93;;;13.70;99.90;;;;;;4974856;28;20247;-92
2021/01/29 11:28:04;;;;;;;45.10;6.32;;;14.30;99.90;;;;;;4976628;28;20201;-95
2021/01/29 11:30:44;;;;;;;39.60;5.97;;;14.70;99.90;;;;;;4973508;28;20189;-94
2021/01/29 11:33:13;;;;;;;38.67;6.18;;;14.00;99.90;;;;;;4975205;28;20189;-92
2021/01/29 11:35:52;;;;;;;50.80;5.85;;;13.50;99.90;;;;;;4975391;28;20170;-91
2021/01/29 11:38:52;;;;;;;36.72;6.55;;;13.00;99.90;;;;;;4975149;28;20166;-93
2021/01/29 11:41:30;;;;;;;31.88;4.72;;;12.50;99.90;;;;;;4975038;28;20586;-90
2021/01/29 11:44:17;;;;;;;26.15;4.55;;;12.30;99.90;;;;;;4975503;28;20556;-91
2021/01/29 11:47:17;;;;;;;25.48;3.47;;;11.90;99.90;;;;;;4976501;28;20662;-91
2021/01/29 11:50:07;;;;;;;27.55;4.35;;;11.90;99.90;;;;;;4976185;28;20166;-92
2021/01/29 11:52:43;;;;;;;23.40;3.95;;;12.50;99.90;;;;;;4976240;28;20221;-90
2021/01/29 11:55:16;;;;;;;26.48;4.78;;;13.50;99.90;;;;;;4976145;28;20173;-90
2021/01/29 11:57:54;;;;;;;39.95;5.68;;;13.10;99.90;;;;;;4976176;28;20260;-91
2021/01/29 12:00:45;;;;;;;33.85;5.55;;;12.90;99.90;;;;;;4975900;28;20542;-90
2021/01/29 12:03:56;;;;;;;38.53;5.07;;;13.20;99.90;;;;;;4976243;28;20166;-91
2021/01/29 12:06:43;;;;;;;37.17;4.57;;;13.80;99.90;;;;;;4973113;28;20699;-89
2021/01/29 12:09:13;;;;;;;28.63;4.60;;;13.70;99.90;;;;;;4981441;28;20198;-88
2021/01/29 12:11:59;;;;;;;28.73;5.47;;;13.70;99.90;;;;;;4980764;28;20198;-89
2021/01/29 12:14:54;;;;;;;31.75;6.28;;;14.50;99.90;;;;;;4998003;28;20196;-89
2021/01/29 12:17:28;;;;;;;33.42;4.68;;;16.20;99.90;;;;;;4974716;28;20179;-89
2021/01/29 12:20:18;;;;;;;26.27;4.32;;;15.40;99.90;;;;;;4978485;28;20257;-88
2021/01/29 12:23:21;;;;;;;32.22;5.15;;;14.40;99.90;;;;;;4973949;28;20193;-87
2021/01/29 12:26:05;;;;;;;37.85;5.63;;;14.00;99.90;;;;;;4971925;28;20272;-88
2021/01/29 12:28:38;;;;;;;30.25;5.03;;;13.80;99.90;;;;;;4955558;28;20171;-89
2021/01/29 12:31:25;;;;;;;26.02;4.40;;;14.30;99.90;;;;;;4991676;28;20182;-89
2021/01/29 12:34:00;;;;;;;21.67;4.47;;;14.20;99.90;;;;;;4981234;28;20225;-88
2021/01/29 12:36:28;;;;;;;37.80;4.75;;;13.40;99.90;;;;;;4976780;28;20174;-88
2021/01/29 12:39:02;;;;;;;30.58;5.45;;;12.90;99.90;;;;;;4952895;29;20817;-88
2021/01/29 12:41:51;;;;;;;27.13;3.53;;;12.70;99.90;;;;;;4974009;28;20633;-89
2021/01/29 12:44:57;;;;;;;21.02;3.25;;;12.30;99.90;;;;;;4975120;28;20257;-88
2021/01/29 12:47:41;;;;;;;26.23;3.17;;;11.70;99.90;;;;;;4966627;28;20182;-89
2021/01/29 12:50:43;;;;;;;15.18;2.53;;;11.30;99.90;;;;;;4959708;29;20533;-91
2021/01/29 12:53:21;;;;;;;13.90;2.67;;;11.10;99.90;;;;;;4964318;28;20317;-92
2021/01/29 12:56:15;;;;;;;10.85;1.88;;;11.70;99.90;;;;;;4980122;28;20170;-92
2021/01/29 12:58:53;;;;;;;10.60;1.58;;;13.20;99.90;;;;;;4980142;28;20185;-93
2021/01/29 13:01:42;;;;;;;16.48;3.10;;;14.30;99.90;;;;;;4979677;28;20178;-90
2021/01/29 13:04:45;;;;;;;13.45;2.08;;;15.40;99.90;;;;;;4966123;28;20300;-91
2021/01/29 13:07:23;;;;;;;14.30;2.08;;;16.30;99.90;;;;;;4976419;28;20568;-90
2021/01/29 13:10:08;;;;;;;10.98;2.25;;;16.40;99.90;;;;;;5005875;28;20165;-90
2021/01/29 13:13:17;;;;;;;9.57;2.28;;;16.30;99.90;;;;;;5003416;28;20208;-90
2021/01/29 13:16:09;;;;;;;21.85;3.53;;;16.00;99.90;;;;;;4976749;28;20201;-89
2021/01/29 13:18:50;;;;;;;14.13;2.70;;;14.00;99.90;;;;;;4974821;28;20230;-87
2021/01/29 13:21:47;;;;;;;17.85;2.65;;;13.40;99.90;;;;;;4984114;28;20265;-88
2021/01/29 13:24:33;;;;;;;23.10;3.50;;;12.60;99.90;;;;;;4985022;28;20204;-89
2021/01/29 13:27:05;;;;;;;15.60;2.88;;;12.20;99.90;;;;;;4977926;28;20584;-89
2021/01/29 13:29:33;;;;;;;18.33;2.90;;;12.00;99.90;;;;;;4974172;28;20210;-90
2021/01/29 13:32:26;;;;;;;19.98;3.28;;;11.80;99.90;;;;;;4971348;29;20218;-89
2021/01/29 13:34:54;;;;;;;16.17;2.35;;;11.60;99.90;;;;;;4961103;28;20181;-89
2021/01/29 13:37:28;;;;;;;20.90;2.90;;;11.50;99.90;;;;;;4963124;29;20166;-90
2021/01/29 13:40:10;;;;;;;17.48;3.08;;;11.30;99.90;;;;;;4959849;29;20170;-90
2021/01/29 13:42:41;;;;;;;13.75;3.17;;;11.10;99.90;;;;;;4957738;29;20261;-90
2021/01/29 13:45:29;;;;;;;16.45;3.08;;;11.10;99.90;;;;;;4958753;28;20175;-90
2021/01/29 13:48:15;;;;;;;11.90;2.35;;;11.20;99.90;;;;;;4965321;29;20185;-91
2021/01/29 13:53:54;;;;;;;10.15;2.25;;;11.40;99.90;;;;;;4891090;29;20309;-90
2021/01/29 13:57:01;;;;;;;16.83;2.42;;;11.50;99.90;;;;;;4958612;28;20195;-90
2021/01/29 13:59:41;;;;;;;16.67;3.08;;;11.70;99.90;;;;;;4958280;28;20167;-91
2021/01/29 14:02:28;;;;;;;21.95;3.70;;;11.80;99.90;;;;;;4958897;29;20179;-90
2021/01/29 14:05:30;;;;;;;18.33;3.28;;;12.10;99.90;;;;;;4959456;29;20170;-90
2021/01/29 14:08:00;;;;;;;13.35;2.53;;;12.30;99.90;;;;;;4941424;29;20198;-89
2021/01/29 14:10:31;;;;;;;18.17;3.20;;;12.20;99.90;;;;;;4974443;28;20182;-91
2021/01/29 14:13:14;;;;;;;12.30;2.95;;;12.10;99.90;;;;;;4990776;28;20204;-90
2021/01/29 14:15:49;;;;;;;15.52;3.35;;;12.00;99.90;;;;;;4996824;28;20166;-90
2021/01/29 14:18:39;;;;;;;22.67;3.42;;;11.70;99.90;;;;;;4979630;28;20264;-90
2021/01/29 14:21:12;;;;;;;19.05;2.95;;;11.60;99.90;;;;;;4958579;29;20206;-89